createdAt,value
2019-02-10T00:00:48.773Z,60463.94
2019-02-10T00:03:17.164Z,60463.94
2019-02-10T00:05:45.880Z,60486.29
2019-02-10T00:08:14.702Z,60492.39
2019-02-10T00:10:43.087Z,60492.39
2019-02-10T00:13:23.056Z,60481.21
2019-02-10T00:15:51.452Z,60489.34
2019-02-10T00:18:20.553Z,60511.70
2019-02-10T00:20:49.673Z,60493.41
2019-02-10T00:23:18.065Z,60493.41
2019-02-10T00:25:46.452Z,60471.05
2019-02-10T00:28:15.040Z,60466.99
2019-02-10T00:30:43.423Z,60482.23
2019-02-10T00:33:12.207Z,60470.04
2019-02-10T00:35:40.864Z,60501.54
2019-02-10T00:38:09.368Z,60482.23
2019-02-10T00:40:38.039Z,60456.82
2019-02-10T00:43:06.502Z,60516.78
2019-02-10T00:45:35.173Z,60516.78
2019-02-10T00:48:03.683Z,60502.55
2019-02-10T00:50:32.367Z,60464.96
2019-02-10T00:53:01.162Z,60504.59
2019-02-10T00:55:29.548Z,60504.59
2019-02-10T00:57:58.048Z,60498.49
2019-02-10T01:00:26.675Z,60483.25
2019-02-10T01:02:55.197Z,60494.43
2019-02-10T01:05:23.605Z,60513.73
2019-02-10T01:07:52.229Z,60508.65
2019-02-10T01:10:21.100Z,60499.50
2019-02-10T01:12:49.533Z,60504.59
2019-02-10T01:15:18.715Z,60504.59
2019-02-10T01:17:47.413Z,60495.44
2019-02-10T01:20:16.091Z,60495.44
2019-02-10T01:22:44.775Z,60496.46
2019-02-10T01:25:13.336Z,60497.47
2019-02-10T01:27:42.059Z,60497.47
2019-02-10T01:30:15.217Z,60504.59
2019-02-10T01:32:44.133Z,60487.31
2019-02-10T01:35:13.433Z,60544.22
2019-02-10T01:37:42.224Z,60544.22
2019-02-10T01:40:11.459Z,60497.47
2019-02-10T01:42:40.097Z,60501.54
2019-02-10T01:45:11.551Z,60474.10
2019-02-10T01:47:40.240Z,60494.43
2019-02-10T01:50:12.106Z,60494.43
2019-02-10T01:52:40.503Z,60499.50
2019-02-10T01:55:13.881Z,60481.21
2019-02-10T01:57:42.747Z,60481.21
2019-02-10T02:00:15.952Z,60483.25
2019-02-10T02:02:44.567Z,60516.78
2019-02-10T02:05:12.952Z,60497.47
2019-02-10T02:07:41.359Z,60518.82
2019-02-10T02:10:12.862Z,60525.93
2019-02-10T02:12:41.893Z,60512.72
2019-02-10T02:15:16.625Z,60532.02
2019-02-10T02:17:45.028Z,60532.02
2019-02-10T02:20:14.352Z,60495.44
2019-02-10T02:22:43.038Z,60517.80
2019-02-10T02:25:13.241Z,60475.12
2019-02-10T02:27:41.896Z,60475.12
2019-02-10T02:30:12.713Z,60477.15
2019-02-10T02:32:41.782Z,60477.15
2019-02-10T02:35:10.455Z,60494.43
2019-02-10T02:37:39.155Z,60494.43
2019-02-10T02:40:10.211Z,60494.43
2019-02-10T02:42:39.086Z,60508.65
2019-02-10T02:45:10.468Z,60497.47
2019-02-10T02:47:39.126Z,60497.47
2019-02-10T02:50:10.505Z,60497.47
2019-02-10T02:52:39.577Z,60497.47
2019-02-10T02:55:09.790Z,60491.38
2019-02-10T02:57:38.415Z,60502.55
2019-02-10T03:00:10.672Z,60502.55
2019-02-10T03:02:39.651Z,60520.85
2019-02-10T03:05:09.886Z,60493.41
2019-02-10T03:07:38.248Z,60493.41
2019-02-10T03:10:08.259Z,60531.01
2019-02-10T03:12:36.870Z,60490.36
2019-02-10T03:15:07.918Z,60507.64
2019-02-10T03:17:36.571Z,60507.64
2019-02-10T03:20:06.986Z,60492.39
2019-02-10T03:22:35.692Z,60489.34
2019-02-10T03:25:05.805Z,60522.88
2019-02-10T03:27:34.497Z,60544.22
2019-02-10T03:30:03.318Z,60537.11
2019-02-10T03:32:31.891Z,60537.11
2019-02-10T03:35:00.552Z,60488.33
2019-02-10T03:37:29.230Z,60488.33
2019-02-10T03:39:57.644Z,60499.50
2019-02-10T03:42:26.103Z,60502.55
2019-02-10T03:44:54.581Z,60519.83
2019-02-10T03:47:23.261Z,60529.99
2019-02-10T03:49:51.651Z,60502.55
2019-02-10T03:52:20.042Z,60489.34
2019-02-10T03:54:48.588Z,60497.47
2019-02-10T03:57:16.986Z,60546.25
2019-02-10T03:59:45.666Z,60495.44
2019-02-10T04:02:14.558Z,60546.25
2019-02-10T04:04:42.947Z,60492.39
2019-02-10T04:07:11.441Z,60519.83
2019-02-10T04:09:39.826Z,60490.36
2019-02-10T04:12:08.206Z,60490.36
2019-02-10T04:14:36.603Z,60512.72
2019-02-10T04:17:05.117Z,60514.75
2019-02-10T04:19:33.520Z,60514.75
2019-02-10T04:22:01.915Z,60486.29
2019-02-10T04:24:30.301Z,60506.62
2019-02-10T04:26:58.684Z,60525.93
2019-02-10T04:29:27.083Z,60539.14
2019-02-10T04:31:55.819Z,60519.83
2019-02-10T04:34:24.205Z,60524.91
2019-02-10T04:36:52.599Z,60524.91
2019-02-10T04:39:21.276Z,60525.93
2019-02-10T04:41:49.722Z,60527.96
2019-02-10T04:44:18.554Z,60548.29
2019-02-10T04:46:47.131Z,60557.43
2019-02-10T04:49:15.518Z,60557.43
2019-02-10T04:51:44.161Z,60525.93
2019-02-10T04:54:12.866Z,60559.46
2019-02-10T04:56:41.552Z,60559.46
2019-02-10T04:59:10.149Z,60526.95
2019-02-10T05:01:39.028Z,60532.02
2019-02-10T05:04:07.635Z,60532.02
2019-02-10T05:06:36.277Z,60517.80
2019-02-10T05:09:05.410Z,60517.80
2019-02-10T05:11:33.793Z,60543.20
2019-02-10T05:14:02.457Z,60543.20
2019-02-10T05:16:31.151Z,60544.22
2019-02-10T05:18:59.537Z,60547.27
2019-02-10T05:21:28.032Z,60532.02
2019-02-10T05:24:03.076Z,60532.02
2019-02-10T05:26:26.721Z,60507.64
2019-02-10T05:28:55.214Z,60507.64
2019-02-10T05:31:23.875Z,60545.23
2019-02-10T05:33:52.263Z,60545.23
2019-02-10T05:36:20.894Z,60514.75
2019-02-10T05:38:49.524Z,60525.93
2019-02-10T05:41:17.923Z,60525.93
2019-02-10T05:43:46.327Z,60508.65
2019-02-10T05:46:14.714Z,60495.44
2019-02-10T05:48:43.118Z,60541.17
2019-02-10T05:51:11.501Z,60541.17
2019-02-10T05:53:40.008Z,60539.14
2019-02-10T05:56:08.789Z,60539.14
2019-02-10T05:58:37.175Z,60558.45
2019-02-10T06:01:41.877Z,60531.01
2019-02-10T06:04:10.452Z,60531.01
2019-02-10T06:06:39.171Z,60544.22
2019-02-10T06:09:07.573Z,60544.22
2019-02-10T06:11:36.236Z,60506.62
2019-02-10T06:14:04.954Z,60533.04
2019-02-10T06:16:33.384Z,60538.12
2019-02-10T06:19:02.100Z,60514.75
2019-02-10T06:21:31.092Z,60532.02
2019-02-10T06:23:59.482Z,60532.02
2019-02-10T06:26:27.922Z,60536.09
2019-02-10T06:28:56.420Z,60515.77
2019-02-10T06:31:24.808Z,60515.77
2019-02-10T06:33:53.696Z,60526.95
2019-02-10T06:36:22.097Z,60491.38
2019-02-10T06:38:50.484Z,60504.59
2019-02-10T06:41:19.281Z,60504.59
2019-02-10T06:43:47.661Z,60514.75
2019-02-10T06:46:16.043Z,60515.77
2019-02-10T06:48:44.439Z,60524.91
2019-02-10T06:51:12.884Z,60538.12
2019-02-10T06:53:41.371Z,60524.91
2019-02-10T06:56:09.872Z,60526.95
2019-02-10T06:58:38.256Z,60526.95
2019-02-10T07:01:08.629Z,60522.88
2019-02-10T07:03:44.268Z,60537.11
2019-02-10T07:06:14.623Z,60523.89
2019-02-10T07:08:43.394Z,60519.83
2019-02-10T07:11:12.076Z,60519.83
2019-02-10T07:13:49.112Z,60514.75
2019-02-10T07:16:40.304Z,60539.14
2019-02-10T07:19:34.693Z,60539.14
2019-02-10T07:22:34.781Z,60514.75
2019-02-10T07:25:18.437Z,60545.23
2019-02-10T07:28:01.972Z,60512.72
2019-02-10T07:30:39.380Z,60512.72
2019-02-10T07:33:10.949Z,60511.70
2019-02-10T07:35:51.622Z,60523.89
2019-02-10T07:38:50.413Z,60510.68
2019-02-10T07:41:38.960Z,60510.68
2019-02-10T07:44:19.493Z,60505.60
2019-02-10T07:47:16.867Z,60541.17
2019-02-10T07:49:53.918Z,60545.23
2019-02-10T07:52:28.371Z,60545.23
2019-02-10T07:55:18.741Z,60540.15
2019-02-10T07:57:50.190Z,60550.32
2019-02-10T08:00:21.943Z,60550.32
2019-02-10T08:03:14.728Z,60539.14
2019-02-10T08:05:52.003Z,60539.14
2019-02-10T08:08:46.301Z,60521.86
2019-02-10T08:11:23.769Z,60535.07
2019-02-10T08:14:01.043Z,60523.89
2019-02-10T08:16:41.557Z,60522.88
2019-02-10T08:19:28.324Z,60507.64
2019-02-10T08:22:11.564Z,60507.64
2019-02-10T08:24:55.198Z,60538.12
2019-02-10T08:27:41.341Z,60505.60
2019-02-10T08:30:33.328Z,60524.91
2019-02-10T08:33:10.983Z,60524.91
2019-02-10T08:35:54.590Z,60523.89
2019-02-10T08:38:28.680Z,60528.98
2019-02-10T08:41:33.326Z,60517.80
2019-02-10T08:44:14.457Z,60517.80
2019-02-10T08:46:51.758Z,60515.77
2019-02-10T08:49:46.759Z,60515.77
2019-02-10T08:52:29.772Z,60515.77
2019-02-10T08:54:59.273Z,60512.72
2019-02-10T08:57:27.668Z,60512.72
2019-02-10T08:59:56.224Z,60512.72
2019-02-10T09:02:24.716Z,60529.99
2019-02-10T09:04:53.135Z,60525.93
2019-02-10T09:07:21.604Z,60525.93
2019-02-10T09:09:53.168Z,60540.15
2019-02-10T09:12:21.687Z,60514.75
2019-02-10T09:14:50.412Z,60513.73
2019-02-10T09:17:18.908Z,60531.01
2019-02-10T09:19:47.318Z,60512.72
2019-02-10T09:22:15.708Z,60516.78
2019-02-10T09:24:44.099Z,60533.04
2019-02-10T09:27:12.602Z,60535.07
2019-02-10T09:29:40.980Z,60506.62
2019-02-10T09:32:09.611Z,60521.86
2019-02-10T09:34:38.010Z,60492.39
2019-02-10T09:37:07.547Z,60531.01
2019-02-10T09:39:36.122Z,60518.82
2019-02-10T09:42:07.532Z,60504.59
2019-02-10T09:44:37.116Z,60538.12
2019-02-10T09:47:05.692Z,60513.73
2019-02-10T09:49:34.388Z,60500.52
2019-02-10T09:52:02.694Z,60517.80
2019-02-10T09:54:31.139Z,60527.96
2019-02-10T09:56:59.639Z,60487.31
2019-02-10T09:59:28.049Z,60533.04
2019-02-10T10:01:56.440Z,60505.60
2019-02-10T10:04:24.981Z,60509.67
2019-02-10T10:06:53.445Z,60523.89
2019-02-10T10:09:21.867Z,60512.72
2019-02-10T10:11:50.271Z,60545.23
2019-02-10T10:14:19.769Z,60507.64
2019-02-10T10:16:48.572Z,60528.98
2019-02-10T10:19:16.970Z,60524.91
2019-02-10T10:21:45.367Z,60512.72
2019-02-10T10:24:13.785Z,60536.09
2019-02-10T10:26:42.169Z,60498.49
2019-02-10T10:29:10.566Z,60546.25
2019-02-10T10:31:39.092Z,60511.70
2019-02-10T10:34:07.538Z,60524.91
2019-02-10T10:36:36.051Z,60535.07
2019-02-10T10:39:05.885Z,60511.70
2019-02-10T10:41:34.271Z,60519.83
2019-02-10T10:44:02.672Z,60520.85
2019-02-10T10:46:31.056Z,60527.96
2019-02-10T10:48:59.469Z,60523.89
2019-02-10T10:51:27.852Z,60526.95
2019-02-10T10:53:56.240Z,60508.65
2019-02-10T10:56:24.680Z,60532.02
2019-02-10T10:58:53.063Z,60520.85
2019-02-10T11:01:25.306Z,60517.80
2019-02-10T11:03:51.691Z,60470.04
2019-02-10T11:06:20.172Z,60488.33
2019-02-10T11:08:48.551Z,60534.06
2019-02-10T11:11:17.388Z,60495.44
2019-02-10T11:13:46.117Z,60519.83
2019-02-10T11:16:14.578Z,60522.88
2019-02-10T11:18:43.058Z,60524.91
2019-02-10T11:21:13.645Z,60525.93
2019-02-10T11:23:42.666Z,60519.83
2019-02-10T11:26:11.264Z,60528.98
2019-02-10T11:28:39.691Z,60504.59
2019-02-10T11:31:08.237Z,60510.68
2019-02-10T11:33:36.627Z,60509.67
2019-02-10T11:36:05.464Z,60526.95
2019-02-10T11:38:33.912Z,60543.20
2019-02-10T11:41:02.369Z,60513.73
2019-02-10T11:43:30.850Z,60522.88
2019-02-10T11:45:59.245Z,60522.88
2019-02-10T11:48:27.742Z,60532.02
2019-02-10T11:50:56.321Z,60534.06
2019-02-10T11:53:25.026Z,60506.62
2019-02-10T11:55:53.407Z,60503.57
2019-02-10T11:58:21.950Z,60503.57
2019-02-10T12:00:50.329Z,60512.72
2019-02-10T12:03:18.715Z,60551.33
2019-02-10T12:05:47.405Z,60531.01
2019-02-10T12:08:15.788Z,60531.01
2019-02-10T12:10:44.381Z,60529.99
2019-02-10T12:13:12.780Z,60517.80
2019-02-10T12:15:41.254Z,60517.80
2019-02-10T12:18:09.778Z,60536.09
2019-02-10T12:20:38.195Z,60524.91
2019-02-10T12:23:06.569Z,60547.27
2019-02-10T12:25:35.272Z,60524.91
2019-02-10T12:28:03.650Z,60524.91
2019-02-10T12:30:32.444Z,60527.96
2019-02-10T12:33:00.887Z,60515.77
2019-02-10T12:35:29.271Z,60536.09
2019-02-10T12:37:57.963Z,60515.77
2019-02-10T12:40:26.358Z,60515.77
2019-02-10T12:42:54.759Z,60509.67
2019-02-10T12:45:23.334Z,60527.96
2019-02-10T12:47:51.736Z,60534.06
2019-02-10T12:50:20.188Z,60527.96
2019-02-10T12:52:48.771Z,60546.25
2019-02-10T12:55:17.151Z,60546.25
2019-02-10T12:57:45.552Z,60548.29
2019-02-10T13:00:18.370Z,60528.98
2019-02-10T13:02:47.171Z,60528.98
2019-02-10T13:05:15.647Z,60525.93
2019-02-10T13:07:44.165Z,60521.86
2019-02-10T13:10:17.500Z,60521.86
2019-02-10T13:12:44.506Z,60561.50
2019-02-10T13:15:14.793Z,60547.27
2019-02-10T13:17:43.192Z,60514.75
2019-02-10T13:20:14.727Z,60514.75
2019-02-10T13:22:43.135Z,60537.11
2019-02-10T13:25:12.856Z,60523.89
2019-02-10T13:27:41.244Z,60526.95
2019-02-10T13:30:14.982Z,60515.77
2019-02-10T13:32:43.373Z,60518.82
2019-02-10T13:35:12.099Z,60541.17
2019-02-10T13:37:40.895Z,60541.17
2019-02-10T13:40:16.948Z,60520.85
2019-02-10T13:42:46.027Z,60533.04
2019-02-10T13:45:14.409Z,60535.07
2019-02-10T13:47:42.795Z,60506.62
2019-02-10T13:50:14.073Z,60506.62
2019-02-10T13:52:42.497Z,60504.59
2019-02-10T13:55:13.297Z,60551.33
2019-02-10T13:57:41.902Z,60528.98
2019-02-10T14:00:15.859Z,60536.09
2019-02-10T14:02:44.257Z,60529.99
2019-02-10T14:05:12.849Z,60527.96
2019-02-10T14:07:41.229Z,60528.98
2019-02-10T14:10:14.767Z,60551.33
2019-02-10T14:12:43.156Z,60551.33
2019-02-10T14:15:19.762Z,60523.89
2019-02-10T14:17:48.525Z,60522.88
2019-02-10T14:20:18.255Z,60532.02
2019-02-10T14:22:46.802Z,60532.02
2019-02-10T14:25:15.200Z,60507.64
2019-02-10T14:27:43.663Z,60545.23
2019-02-10T14:30:16.840Z,60537.11
2019-02-10T14:32:45.140Z,60537.11
2019-02-10T14:35:13.847Z,60540.15
2019-02-10T14:37:42.725Z,60540.15
2019-02-10T14:40:11.655Z,60544.22
2019-02-10T14:42:40.050Z,60551.33
2019-02-10T14:45:13.724Z,60531.01
2019-02-10T14:47:42.275Z,60517.80
2019-02-10T14:50:16.323Z,60553.36
2019-02-10T14:52:44.763Z,60533.04
2019-02-10T14:55:14.375Z,60533.04
2019-02-10T14:57:42.788Z,60519.83
2019-02-10T15:00:15.911Z,60553.36
2019-02-10T15:02:44.361Z,60518.82
2019-02-10T15:05:12.891Z,60529.99
2019-02-10T15:07:41.417Z,60543.20
2019-02-10T15:10:17.575Z,60545.23
2019-02-10T15:12:45.963Z,60529.99
2019-02-10T15:15:14.394Z,60535.07
2019-02-10T15:17:42.838Z,60529.99
2019-02-10T15:20:12.256Z,60529.99
2019-02-10T15:22:40.736Z,60545.23
2019-02-10T15:25:11.445Z,60543.20
2019-02-10T15:27:43.994Z,60541.17
2019-02-10T15:30:17.274Z,60544.22
2019-02-10T15:32:45.858Z,60526.95
2019-02-10T15:35:14.329Z,60533.04
2019-02-10T15:37:42.803Z,60527.96
2019-02-10T15:40:13.249Z,60539.14
2019-02-10T15:42:45.138Z,60536.09
2019-02-10T15:45:14.530Z,60551.33
2019-02-10T15:47:43.072Z,60551.33
2019-02-10T15:50:14.130Z,60545.23
2019-02-10T15:52:42.505Z,60558.45
2019-02-10T15:55:14.710Z,60542.19
2019-02-10T15:57:43.387Z,60548.29
2019-02-10T16:00:20.410Z,60478.16
2019-02-10T16:02:48.819Z,60567.59
2019-02-10T16:05:17.347Z,60536.09
2019-02-10T16:07:45.848Z,60545.23
2019-02-10T16:10:14.323Z,60526.95
2019-02-10T16:12:42.857Z,60527.96
2019-02-10T16:15:12.724Z,60531.01
2019-02-10T16:17:41.205Z,60531.01
2019-02-10T16:20:14.738Z,60554.38
2019-02-10T16:22:43.222Z,60524.91
2019-02-10T16:25:11.839Z,60540.15
2019-02-10T16:27:40.647Z,60523.89
2019-02-10T16:30:14.777Z,60558.45
2019-02-10T16:32:49.728Z,60545.23
2019-02-10T16:35:13.481Z,60561.50
2019-02-10T16:37:42.074Z,60536.09
2019-02-10T16:40:16.204Z,60523.89
2019-02-10T16:42:44.774Z,60551.33
2019-02-10T16:45:14.240Z,60551.33
2019-02-10T16:47:42.842Z,60532.02
2019-02-10T16:50:15.779Z,60532.02
2019-02-10T16:52:44.631Z,60525.93
2019-02-10T16:55:19.108Z,60522.88
2019-02-10T16:57:47.683Z,60522.88
2019-02-10T17:00:17.163Z,60547.27
2019-02-10T17:02:45.940Z,60568.61
2019-02-10T17:05:14.493Z,60543.20
2019-02-10T17:07:43.022Z,60523.89
2019-02-10T17:10:16.172Z,60540.15
2019-02-10T17:12:45.309Z,60548.29
2019-02-10T17:15:14.484Z,60548.29
2019-02-10T17:17:43.528Z,60547.27
2019-02-10T17:20:13.170Z,60547.27
2019-02-10T17:22:42.149Z,60556.41
2019-02-10T17:25:14.190Z,60537.11
2019-02-10T17:27:43.042Z,60542.19
2019-02-10T17:30:14.086Z,60542.19
2019-02-10T17:32:43.778Z,60543.20
2019-02-10T17:35:14.087Z,60558.45
2019-02-10T17:37:42.467Z,60535.07
2019-02-10T17:40:20.089Z,60535.07
2019-02-10T17:42:48.473Z,60545.23
2019-02-10T17:45:16.861Z,60545.23
2019-02-10T17:47:45.324Z,60529.99
2019-02-10T17:50:13.927Z,60539.14
2019-02-10T17:52:44.071Z,60524.91
2019-02-10T17:55:12.496Z,60512.72
2019-02-10T17:57:41.119Z,60541.17
2019-02-10T18:00:15.564Z,60521.86
2019-02-10T18:02:44.042Z,60550.32
2019-02-10T18:05:12.715Z,60567.59
2019-02-10T18:07:41.495Z,60522.88
2019-02-10T18:10:12.577Z,60554.38
2019-02-10T18:12:41.472Z,60558.45
2019-02-10T18:15:13.587Z,60576.74
2019-02-10T18:18:00.291Z,60540.15
2019-02-10T18:20:39.786Z,60536.09
2019-02-10T18:23:10.015Z,60541.17
2019-02-10T18:25:40.051Z,60578.77
2019-02-10T18:28:12.659Z,60520.85
2019-02-10T18:30:58.077Z,60554.38
2019-02-10T18:33:28.103Z,60540.15
2019-02-10T18:35:58.420Z,60557.43
2019-02-10T18:38:28.468Z,60527.96
2019-02-10T18:40:58.501Z,60531.01
2019-02-10T18:43:31.188Z,60545.23
2019-02-10T18:46:01.237Z,60553.36
2019-02-10T18:48:31.285Z,60548.29
2019-02-10T18:51:01.421Z,60567.59
2019-02-10T18:53:31.710Z,60517.80
2019-02-10T18:56:04.426Z,60517.80
2019-02-10T18:58:40.492Z,60553.36
2019-02-10T19:01:10.816Z,60553.36
2019-02-10T19:03:43.618Z,60563.53
2019-02-10T19:06:14.332Z,60556.41
2019-02-10T19:08:44.440Z,60565.56
2019-02-10T19:11:14.508Z,60578.77
2019-02-10T19:13:45.140Z,60559.46
2019-02-10T19:16:24.590Z,60556.41
2019-02-10T19:18:57.296Z,60538.12
2019-02-10T19:21:30.078Z,60546.25
2019-02-10T19:24:16.734Z,60516.78
2019-02-10T19:27:03.094Z,60540.15
2019-02-10T19:29:33.133Z,60564.54
2019-02-10T19:32:19.153Z,60555.40
2019-02-10T19:34:54.833Z,60523.89
2019-02-10T19:37:31.360Z,60544.22
2019-02-10T19:40:04.281Z,60561.50
2019-02-10T19:42:46.154Z,60576.74
2019-02-10T19:45:22.000Z,60553.36
2019-02-10T19:48:01.388Z,60532.02
2019-02-10T19:50:47.617Z,60582.84
2019-02-10T19:53:20.604Z,60570.64
2019-02-10T19:56:05.700Z,60573.69
2019-02-10T19:58:53.755Z,60554.38
2019-02-10T20:01:39.903Z,60534.06
2019-02-10T20:04:25.322Z,60551.33
2019-02-10T20:07:01.385Z,60561.50
2019-02-10T20:09:34.072Z,60598.08
2019-02-10T20:12:20.544Z,60548.29
2019-02-10T20:14:56.343Z,60543.20
2019-02-10T20:17:32.076Z,60576.74
2019-02-10T20:20:19.348Z,60554.38
2019-02-10T20:22:55.511Z,60565.56
2019-02-10T20:25:37.567Z,60531.01
2019-02-10T20:28:13.114Z,60552.35
2019-02-10T20:31:05.957Z,60562.51
2019-02-10T20:33:36.570Z,60564.54
2019-02-10T20:36:06.603Z,60563.53
2019-02-10T20:38:53.028Z,60555.40
2019-02-10T20:41:32.939Z,60583.85
2019-02-10T20:44:09.149Z,60555.40
2019-02-10T20:46:39.280Z,60569.62
2019-02-10T20:49:15.595Z,60557.43
2019-02-10T20:51:54.636Z,60577.75
2019-02-10T20:54:24.676Z,60561.50
2019-02-10T20:57:09.492Z,60609.26
2019-02-10T20:59:54.275Z,60526.95
2019-02-10T21:02:33.375Z,60547.27
2019-02-10T21:05:03.410Z,60589.95
2019-02-10T21:07:33.551Z,60579.79
2019-02-10T21:10:19.843Z,60550.32
2019-02-10T21:12:52.629Z,60584.87
2019-02-10T21:15:38.769Z,60567.59
2019-02-10T21:18:23.897Z,60553.36
2019-02-10T21:21:02.635Z,60563.53
2019-02-10T21:23:41.991Z,60570.64
2019-02-10T21:26:17.825Z,60555.40
2019-02-10T21:28:50.841Z,60578.77
2019-02-10T21:31:21.164Z,60580.80
2019-02-10T21:33:57.002Z,60563.53
2019-02-10T21:36:30.095Z,60547.27
2019-02-10T21:39:16.628Z,60572.67
2019-02-10T21:41:52.275Z,60588.93
2019-02-10T21:44:22.676Z,60575.72
2019-02-10T21:46:55.968Z,60544.22
2019-02-10T21:49:24.428Z,60595.03
2019-02-10T21:51:53.174Z,60580.80
2019-02-10T21:54:21.830Z,60557.43
2019-02-10T21:56:50.315Z,60613.32
2019-02-10T21:59:18.721Z,60574.71
2019-02-10T22:01:47.286Z,60582.84
2019-02-10T22:04:15.685Z,60562.51
2019-02-10T22:06:44.140Z,60545.23
2019-02-10T22:09:12.734Z,60569.62
2019-02-10T22:11:41.130Z,60565.56
2019-02-10T22:14:09.525Z,60568.61
2019-02-10T22:16:37.923Z,60582.84
2019-02-10T22:19:06.631Z,60571.66
2019-02-10T22:21:35.143Z,60577.75
2019-02-10T22:24:03.529Z,60575.72
2019-02-10T22:26:31.925Z,60569.62
2019-02-10T22:29:00.348Z,60568.61
2019-02-10T22:31:28.735Z,60575.72
2019-02-10T22:33:57.130Z,60566.57
2019-02-10T22:36:25.584Z,60599.10
2019-02-10T22:38:53.985Z,60578.77
2019-02-10T22:41:22.465Z,60567.59
2019-02-10T22:43:50.868Z,60557.43
2019-02-10T22:46:19.302Z,60612.31
2019-02-10T22:48:47.680Z,60581.82
2019-02-10T22:51:16.079Z,60573.69
2019-02-10T22:53:44.471Z,60576.74
2019-02-10T22:56:12.852Z,60549.30
2019-02-10T22:58:41.719Z,60560.48
2019-02-10T23:01:10.733Z,60575.72
2019-02-10T23:03:39.402Z,60583.85
2019-02-10T23:06:08.402Z,60574.71
2019-02-10T23:08:37.187Z,60571.66
2019-02-10T23:11:05.873Z,60559.46
2019-02-10T23:13:34.338Z,60552.35
2019-02-10T23:16:03.045Z,60575.72
2019-02-10T23:18:31.432Z,60591.98
2019-02-10T23:20:59.931Z,60586.90
2019-02-10T23:23:28.389Z,60568.61
2019-02-10T23:25:56.980Z,60557.43
2019-02-10T23:28:25.952Z,60568.61
2019-02-10T23:30:54.582Z,60583.85
2019-02-10T23:33:22.977Z,60569.62
2019-02-10T23:35:51.429Z,60569.62
2019-02-10T23:38:20.084Z,60622.47
2019-02-10T23:40:48.769Z,60578.77
2019-02-10T23:43:17.174Z,60568.61
2019-02-10T23:45:45.840Z,60591.98
2019-02-10T23:48:14.219Z,60581.82
2019-02-10T23:50:43.030Z,60600.11
2019-02-10T23:53:11.498Z,60550.32
2019-02-10T23:55:40.171Z,60579.79
2019-02-10T23:58:08.961Z,60585.88
